Terminal Aerodrome Forecast
Issued by NWS

Current Version | Previous Version | Text Only | Print | Product List | Glossary On
Versions: 1 2 3 4 5 6 7 8 9 10 11 12 13 14 15 16 17 18
000
FTAK31 PAJN 201740
TAFAKT
TAF
PAKT 201740Z 2018/2118 VRB04KT P6SM -SHRA FEW010 SCT025 OVC040
     FM202100 13013G20KT 5SM -SHRA BKN015 OVC030 WS020/16035KT
     FM210600 31008KT 6SM -SHRA BKN015 BKN025 OVC040
     FM211200 31008KT P6SM -SHRA SCT015 BKN025 OVC040
      AMD LTD TO CLD VIS AND WIND 2106/2115=

USA.gov is the U.S. government's official web portal to all federal, state and local government web resources and services.